sensor_id;sensor_type;location;lat;lon;timestamp;P1;durP1;ratioP1;P2;durP2;ratioP2
17261;SDS011;9873;52.236;21.002;2023-04-24T00:03:15;11.70;;;6.80;;
17261;SDS011;9873;52.236;21.002;2023-04-24T00:13:17;8.05;;;5.75;;
17261;SDS011;9873;52.236;21.002;2023-04-24T00:23:22;11.93;;;7.15;;
17261;SDS011;9873;52.236;21.002;2023-04-24T00:33:27;11.38;;;6.85;;
17261;SDS011;9873;52.236;21.002;2023-04-24T00:43:34;9.10;;;6.70;;
17261;SDS011;9873;52.236;21.002;2023-04-24T00:53:39;9.68;;;6.47;;
17261;SDS011;9873;52.236;21.002;2023-04-24T01:03:42;7.88;;;6.25;;
17261;SDS011;9873;52.236;21.002;2023-04-24T01:13:44;8.40;;;6.13;;
17261;SDS011;9873;52.236;21.002;2023-04-24T01:23:47;9.93;;;6.68;;
17261;SDS011;9873;52.236;21.002;2023-04-24T01:33:53;12.02;;;7.28;;
17261;SDS011;9873;52.236;21.002;2023-04-24T01:43:56;8.70;;;7.03;;
17261;SDS011;9873;52.236;21.002;2023-04-24T01:53:59;14.57;;;8.27;;
17261;SDS011;9873;52.236;21.002;2023-04-24T02:04:04;12.00;;;8.48;;
17261;SDS011;9873;52.236;21.002;2023-04-24T02:14:13;9.55;;;7.20;;
17261;SDS011;9873;52.236;21.002;2023-04-24T02:24:17;15.43;;;8.65;;
17261;SDS011;9873;52.236;21.002;2023-04-24T02:34:21;10.35;;;6.65;;
17261;SDS011;9873;52.236;21.002;2023-04-24T02:44:24;11.15;;;8.40;;
17261;SDS011;9873;52.236;21.002;2023-04-24T02:54:27;12.43;;;7.47;;
17261;SDS011;9873;52.236;21.002;2023-04-24T03:04:29;11.65;;;7.65;;
17261;SDS011;9873;52.236;21.002;2023-04-24T03:14:32;9.90;;;7.32;;
17261;SDS011;9873;52.236;21.002;2023-04-24T03:24:37;11.25;;;7.95;;
17261;SDS011;9873;52.236;21.002;2023-04-24T03:34:39;11.55;;;7.82;;
17261;SDS011;9873;52.236;21.002;2023-04-24T03:44:44;11.63;;;8.43;;
17261;SDS011;9873;52.236;21.002;2023-04-24T03:54:52;10.93;;;8.35;;
17261;SDS011;9873;52.236;21.002;2023-04-24T04:04:55;11.43;;;7.68;;
17261;SDS011;9873;52.236;21.002;2023-04-24T04:15:00;13.57;;;8.55;;
17261;SDS011;9873;52.236;21.002;2023-04-24T04:25:04;11.65;;;7.53;;
17261;SDS011;9873;52.236;21.002;2023-04-24T04:35:06;16.00;;;9.05;;
17261;SDS011;9873;52.236;21.002;2023-04-24T04:45:12;13.23;;;7.82;;
17261;SDS011;9873;52.236;21.002;2023-04-24T04:55:34;15.15;;;8.15;;
17261;SDS011;9873;52.236;21.002;2023-04-24T05:05:51;18.92;;;8.55;;
17261;SDS011;9873;52.236;21.002;2023-04-24T05:15:53;12.70;;;7.70;;
17261;SDS011;9873;52.236;21.002;2023-04-24T05:25:57;11.77;;;7.75;;
17261;SDS011;9873;52.236;21.002;2023-04-24T05:35:59;16.80;;;8.07;;
17261;SDS011;9873;52.236;21.002;2023-04-24T05:46:04;11.57;;;8.63;;
17261;SDS011;9873;52.236;21.002;2023-04-24T05:56:06;11.10;;;7.82;;
17261;SDS011;9873;52.236;21.002;2023-04-24T06:06:10;10.90;;;8.23;;
17261;SDS011;9873;52.236;21.002;2023-04-24T06:16:13;14.75;;;8.90;;
17261;SDS011;9873;52.236;21.002;2023-04-24T06:26:26;11.55;;;8.30;;
17261;SDS011;9873;52.236;21.002;2023-04-24T06:36:29;11.75;;;8.15;;
17261;SDS011;9873;52.236;21.002;2023-04-24T06:46:38;16.80;;;9.52;;
17261;SDS011;9873;52.236;21.002;2023-04-24T06:56:45;10.85;;;7.97;;
17261;SDS011;9873;52.236;21.002;2023-04-24T07:06:52;15.82;;;8.38;;
17261;SDS011;9873;52.236;21.002;2023-04-24T07:16:57;13.23;;;9.20;;
17261;SDS011;9873;52.236;21.002;2023-04-24T07:27:02;13.30;;;8.35;;
17261;SDS011;9873;52.236;21.002;2023-04-24T07:37:06;14.77;;;8.15;;
17261;SDS011;9873;52.236;21.002;2023-04-24T07:47:09;10.50;;;7.88;;
17261;SDS011;9873;52.236;21.002;2023-04-24T07:57:17;11.77;;;8.45;;
17261;SDS011;9873;52.236;21.002;2023-04-24T08:07:20;12.45;;;7.97;;
17261;SDS011;9873;52.236;21.002;2023-04-24T08:17:27;15.10;;;8.88;;
17261;SDS011;9873;52.236;21.002;2023-04-24T08:27:29;11.60;;;8.18;;
17261;SDS011;9873;52.236;21.002;2023-04-24T08:37:32;14.90;;;8.10;;
17261;SDS011;9873;52.236;21.002;2023-04-24T08:47:34;11.40;;;7.88;;
17261;SDS011;9873;52.236;21.002;2023-04-24T08:57:41;16.50;;;9.87;;
17261;SDS011;9873;52.236;21.002;2023-04-24T09:07:49;14.68;;;8.13;;
17261;SDS011;9873;52.236;21.002;2023-04-24T09:17:56;9.48;;;6.85;;
17261;SDS011;9873;52.236;21.002;2023-04-24T09:28:02;13.15;;;7.13;;
17261;SDS011;9873;52.236;21.002;2023-04-24T09:38:05;9.80;;;6.10;;
17261;SDS011;9873;52.236;21.002;2023-04-24T09:48:12;21.48;;;6.47;;
17261;SDS011;9873;52.236;21.002;2023-04-24T09:58:24;10.98;;;6.18;;
17261;SDS011;9873;52.236;21.002;2023-04-24T10:08:33;8.50;;;5.90;;
17261;SDS011;9873;52.236;21.002;2023-04-24T10:18:36;10.25;;;5.93;;
17261;SDS011;9873;52.236;21.002;2023-04-24T10:28:41;10.52;;;6.18;;
17261;SDS011;9873;52.236;21.002;2023-04-24T10:38:49;11.25;;;7.57;;
17261;SDS011;9873;52.236;21.002;2023-04-24T10:48:53;9.90;;;6.97;;
17261;SDS011;9873;52.236;21.002;2023-04-24T10:58:57;10.32;;;6.30;;
17261;SDS011;9873;52.236;21.002;2023-04-24T11:29:17;6.78;;;5.90;;
17261;SDS011;9873;52.236;21.002;2023-04-24T11:39:23;7.63;;;5.28;;
17261;SDS011;9873;52.236;21.002;2023-04-24T11:49:30;6.00;;;4.82;;
17261;SDS011;9873;52.236;21.002;2023-04-24T11:59:35;8.35;;;4.60;;
17261;SDS011;9873;52.236;21.002;2023-04-24T12:09:40;7.13;;;4.68;;
17261;SDS011;9873;52.236;21.002;2023-04-24T12:19:50;8.70;;;5.68;;
17261;SDS011;9873;52.236;21.002;2023-04-24T12:29:58;6.30;;;5.40;;
17261;SDS011;9873;52.236;21.002;2023-04-24T12:40:08;6.35;;;4.25;;
17261;SDS011;9873;52.236;21.002;2023-04-24T12:50:12;8.40;;;4.80;;
17261;SDS011;9873;52.236;21.002;2023-04-24T13:00:17;8.15;;;3.50;;
17261;SDS011;9873;52.236;21.002;2023-04-24T13:10:22;9.02;;;3.10;;
17261;SDS011;9873;52.236;21.002;2023-04-24T13:20:27;5.03;;;2.80;;
17261;SDS011;9873;52.236;21.002;2023-04-24T13:30:29;3.92;;;2.90;;
17261;SDS011;9873;52.236;21.002;2023-04-24T13:40:36;6.70;;;3.40;;
17261;SDS011;9873;52.236;21.002;2023-04-24T13:50:42;8.25;;;3.80;;
17261;SDS011;9873;52.236;21.002;2023-04-24T14:00:44;4.32;;;3.10;;
17261;SDS011;9873;52.236;21.002;2023-04-24T14:10:51;8.13;;;2.92;;
17261;SDS011;9873;52.236;21.002;2023-04-24T14:20:58;5.72;;;3.47;;
17261;SDS011;9873;52.236;21.002;2023-04-24T14:31:04;4.47;;;3.30;;
17261;SDS011;9873;52.236;21.002;2023-04-24T14:41:12;4.57;;;3.50;;
17261;SDS011;9873;52.236;21.002;2023-04-24T14:51:17;4.00;;;3.25;;
17261;SDS011;9873;52.236;21.002;2023-04-24T15:01:25;8.50;;;3.95;;
17261;SDS011;9873;52.236;21.002;2023-04-24T15:11:31;5.35;;;3.78;;
17261;SDS011;9873;52.236;21.002;2023-04-24T15:21:38;3.85;;;3.15;;
17261;SDS011;9873;52.236;21.002;2023-04-24T15:31:43;8.45;;;3.42;;
17261;SDS011;9873;52.236;21.002;2023-04-24T15:41:45;4.97;;;3.28;;
17261;SDS011;9873;52.236;21.002;2023-04-24T15:51:55;4.43;;;3.15;;
17261;SDS011;9873;52.236;21.002;2023-04-24T16:02:09;6.45;;;3.38;;
17261;SDS011;9873;52.236;21.002;2023-04-24T16:12:20;5.13;;;3.65;;
17261;SDS011;9873;52.236;21.002;2023-04-24T16:22:22;5.57;;;3.88;;
17261;SDS011;9873;52.236;21.002;2023-04-24T16:32:26;6.90;;;3.78;;
17261;SDS011;9873;52.236;21.002;2023-04-24T16:42:28;7.10;;;3.40;;
17261;SDS011;9873;52.236;21.002;2023-04-24T16:52:36;6.82;;;3.80;;
17261;SDS011;9873;52.236;21.002;2023-04-24T17:02:39;6.47;;;4.35;;
17261;SDS011;9873;52.236;21.002;2023-04-24T17:12:41;5.45;;;4.00;;
17261;SDS011;9873;52.236;21.002;2023-04-24T17:22:43;7.30;;;3.75;;
17261;SDS011;9873;52.236;21.002;2023-04-24T17:32:53;7.00;;;4.20;;
17261;SDS011;9873;52.236;21.002;2023-04-24T17:42:55;7.43;;;4.35;;
17261;SDS011;9873;52.236;21.002;2023-04-24T17:53:03;9.25;;;4.10;;
17261;SDS011;9873;52.236;21.002;2023-04-24T18:03:06;5.05;;;4.20;;
17261;SDS011;9873;52.236;21.002;2023-04-24T18:13:11;8.65;;;5.00;;
17261;SDS011;9873;52.236;21.002;2023-04-24T18:23:14;8.52;;;5.03;;
17261;SDS011;9873;52.236;21.002;2023-04-24T18:33:24;9.25;;;5.97;;
17261;SDS011;9873;52.236;21.002;2023-04-24T18:43:29;6.63;;;4.45;;
17261;SDS011;9873;52.236;21.002;2023-04-24T18:53:31;9.45;;;4.85;;
17261;SDS011;9873;52.236;21.002;2023-04-24T19:03:36;8.88;;;5.53;;
17261;SDS011;9873;52.236;21.002;2023-04-24T19:13:45;7.45;;;5.03;;
17261;SDS011;9873;52.236;21.002;2023-04-24T19:23:49;9.55;;;5.47;;
17261;SDS011;9873;52.236;21.002;2023-04-24T19:33:53;7.68;;;5.30;;
17261;SDS011;9873;52.236;21.002;2023-04-24T19:43:58;5.70;;;4.50;;
17261;SDS011;9873;52.236;21.002;2023-04-24T19:54:02;8.00;;;5.68;;
17261;SDS011;9873;52.236;21.002;2023-04-24T20:04:07;10.77;;;5.47;;
17261;SDS011;9873;52.236;21.002;2023-04-24T20:14:12;8.27;;;5.63;;
17261;SDS011;9873;52.236;21.002;2023-04-24T20:24:17;10.35;;;6.22;;
17261;SDS011;9873;52.236;21.002;2023-04-24T20:34:20;9.88;;;6.22;;
17261;SDS011;9873;52.236;21.002;2023-04-24T20:44:25;7.75;;;6.75;;
17261;SDS011;9873;52.236;21.002;2023-04-24T20:54:28;13.82;;;8.20;;
17261;SDS011;9873;52.236;21.002;2023-04-24T21:04:35;11.05;;;7.45;;
17261;SDS011;9873;52.236;21.002;2023-04-24T21:14:43;13.82;;;8.27;;
17261;SDS011;9873;52.236;21.002;2023-04-24T21:24:51;11.90;;;9.40;;
17261;SDS011;9873;52.236;21.002;2023-04-24T21:34:58;9.07;;;7.57;;
17261;SDS011;9873;52.236;21.002;2023-04-24T21:45:03;15.07;;;7.82;;
17261;SDS011;9873;52.236;21.002;2023-04-24T21:55:08;12.70;;;7.68;;
17261;SDS011;9873;52.236;21.002;2023-04-24T22:05:15;7.90;;;7.07;;
17261;SDS011;9873;52.236;21.002;2023-04-24T22:15:21;9.18;;;7.70;;
17261;SDS011;9873;52.236;21.002;2023-04-24T22:25:23;12.52;;;8.18;;
17261;SDS011;9873;52.236;21.002;2023-04-24T22:35:28;11.32;;;8.27;;
17261;SDS011;9873;52.236;21.002;2023-04-24T22:45:30;11.95;;;8.13;;
17261;SDS011;9873;52.236;21.002;2023-04-24T22:55:35;13.60;;;9.77;;
17261;SDS011;9873;52.236;21.002;2023-04-24T23:05:37;11.00;;;8.48;;
17261;SDS011;9873;52.236;21.002;2023-04-24T23:15:49;11.95;;;9.60;;
17261;SDS011;9873;52.236;21.002;2023-04-24T23:25:55;14.18;;;10.07;;
17261;SDS011;9873;52.236;21.002;2023-04-24T23:35:57;13.82;;;9.90;;
17261;SDS011;9873;52.236;21.002;2023-04-24T23:46:02;13.88;;;10.85;;
17261;SDS011;9873;52.236;21.002;2023-04-24T23:56:05;15.20;;;11.00;;
